Holcomb, Kansas
Current Conditions -  °F | °C
As of 4:20 AM on Thursday 23 Oct 2014 (Local Time) from KGCK Reporting Station
Haze Haze  
Wind Chill: 57°   Ceiling: Unl
Heat Index: 57°   Visibility: 2.5mi
Dew Point: 56°   Wind: 6mph
Humidity: 96%   Direction: 170°S
Pressure: 30.06"   Gusts: NA
Location:  37.99°N, 100.99°W
Report Text: KGCK 230920Z AUTO 17005KT 2 1/2SM BR SCT010 14/13 A3006 RMK AO2 T01390133
Loading
Personal Weather Stations






























Interactive Weather Map
Tropical Storm Tracking
New forecast layout! Learn more

10-Day Weather Forecast

Advertisements
Track Severe Weather on mobile